createdAt,value
2018-03-06T00:00:02.597Z,3.1
2018-03-06T00:15:02.955Z,3.1
2018-03-06T00:30:02.400Z,3.1
2018-03-06T00:45:02.670Z,3.1
2018-03-06T01:00:02.971Z,3.1
2018-03-06T01:15:02.288Z,3.1
2018-03-06T01:30:02.338Z,3.1
2018-03-06T01:45:02.595Z,3.1
2018-03-06T02:00:02.941Z,3
2018-03-06T02:15:02.336Z,3
2018-03-06T02:30:02.869Z,3
2018-03-06T02:45:03.173Z,3
2018-03-06T03:00:02.451Z,3
2018-03-06T03:15:02.760Z,3
2018-03-06T03:30:03.110Z,2.9
2018-03-06T03:45:02.488Z,2.9
2018-03-06T04:00:02.748Z,2.9
2018-03-06T04:15:03.085Z,2.9
2018-03-06T04:30:02.528Z,2.9
2018-03-06T04:45:02.819Z,2.9
2018-03-06T05:00:03.086Z,2.9
2018-03-06T05:15:02.540Z,2.9
2018-03-06T05:30:02.986Z,2.9
2018-03-06T05:45:02.386Z,2.9
2018-03-06T06:00:02.661Z,2.8
2018-03-06T06:15:02.907Z,2.8
2018-03-06T06:30:02.466Z,2.8
2018-03-06T06:45:02.776Z,2.8
2018-03-06T07:00:03.001Z,2.8
2018-03-06T07:15:02.329Z,2.8
2018-03-06T07:30:02.728Z,2.8
2018-03-06T07:45:02.993Z,2.8
2018-03-06T08:00:02.347Z,2.8
2018-03-06T08:15:02.682Z,2.8
2018-03-06T08:30:03.131Z,2.8
2018-03-06T08:45:02.473Z,2.8
2018-03-06T09:00:02.737Z,2.8
2018-03-06T09:15:03.127Z,2.9
2018-03-06T09:30:02.502Z,2.9
2018-03-06T09:45:02.725Z,2.9
2018-03-06T10:00:02.957Z,2.9
2018-03-06T10:15:02.436Z,2.9
2018-03-06T10:30:02.796Z,2.9
2018-03-06T10:45:03.130Z,3
2018-03-06T11:00:02.642Z,3
2018-03-06T11:15:02.920Z,3
2018-03-06T11:30:02.309Z,3
2018-03-06T11:45:02.672Z,3.1
2018-03-06T12:00:02.971Z,3.1
2018-03-06T12:15:02.298Z,3.1
2018-03-06T12:30:02.711Z,3.1
2018-03-06T12:45:03.167Z,3.1
2018-03-06T13:00:02.606Z,3.1
2018-03-06T13:15:02.839Z,3.1
2018-03-06T13:30:03.320Z,3.2
2018-03-06T13:45:02.633Z,3.2
2018-03-06T14:00:02.900Z,3.2
2018-03-06T14:15:03.158Z,3.2
2018-03-06T14:30:02.550Z,3.2
2018-03-06T14:45:02.876Z,3.3
2018-03-06T15:00:03.134Z,3.3
2018-03-06T15:15:02.472Z,3.4
2018-03-06T15:30:02.879Z,3.4
2018-03-06T15:45:03.168Z,3.4
2018-03-06T16:00:02.479Z,3.4
2018-03-06T16:15:02.726Z,3.4
2018-03-06T16:30:03.083Z,3.4
2018-03-06T16:45:02.452Z,3.4
2018-03-06T17:00:02.715Z,3.4
2018-03-06T17:15:02.937Z,3.4
2018-03-06T17:30:02.274Z,3.4
2018-03-06T17:45:02.517Z,3.4
2018-03-06T18:00:02.763Z,3.4
2018-03-06T18:15:03.018Z,3.4
2018-03-06T18:30:02.377Z,3.4
2018-03-06T18:45:02.609Z,3.4
2018-03-06T19:00:02.920Z,3.5
2018-03-06T19:15:03.210Z,3.5
2018-03-06T19:30:02.545Z,3.5
2018-03-06T19:45:02.863Z,3.5
2018-03-06T20:00:03.136Z,3.5
2018-03-06T20:15:02.464Z,3.5
2018-03-06T20:30:02.898Z,3.5
2018-03-06T20:45:03.171Z,3.5
2018-03-06T21:00:02.441Z,3.5
2018-03-06T21:15:02.696Z,3.5
2018-03-06T21:30:03.015Z,3.5
2018-03-06T21:45:02.305Z,3.6
2018-03-06T22:00:02.526Z,3.6
2018-03-06T22:15:02.802Z,3.6
2018-03-06T22:30:03.138Z,3.6
2018-03-06T22:45:02.405Z,3.6
2018-03-06T23:00:02.635Z,3.6
2018-03-06T23:15:02.899Z,3.6
2018-03-06T23:30:02.341Z,3.6
2018-03-06T23:45:02.667Z,3.6
